Список аэропортов
Фактическая погода:

25 июня, 11:00
Температура: +19°C (+18.7*)
Ветер: южный 6 м/с
Давление: *753 мм
неб. облачность
1500 м
разорв. обл.
Время (МСК)Темп. СВетерВлажностьДавлениеОблачностьОсадки
09:00+15Ю, 2 м/с70%1004 гПаоблачно
10:00+18Ю, 3 м/с56%1004 гПамалооблачно
11:00+18Ю, 5 м/с48%1004 гПаоблачно
12:00+18Ю, 5 м/с49%1003 гПаоблачно
13:00+18Ю, 5 м/с49%1003 гПаоблачно
14:00+17Ю, 5 м/с54%1003 гПаоблачносл. дождь
15:00+17Ю, 5 м/с54%1003 гПаоблачносл. дождь
16:00+16Ю, 5 м/с66%1002 гПаоблачносл. дождь
17:00+14ЮВ, 4 м/с83%1002 гПаоблачнодождь
18:00+14ЮВ, 5 м/с86%1002 гПаоблачнодождь
19:00+14Ю, 4 м/с90%1002 гПаоблачно
20:00+14Ю, 3 м/с93%1001 гПаоблачно
21:00+14Ю, 3 м/с95%1001 гПаоблачно
22:00+14Ю, 3 м/с96%1001 гПаоблачно
23:00+14Ю, 3 м/с96%1001 гПамалооблачно
26 июня
00:00+13ЮЗ, 4 м/с95%1001 гПамалооблачно
01:00+13ЮЗ, 3 м/с95%1002 гПаясно
02:00+12ЮЗ, 3 м/с95%1002 гПамалооблачно
03:00+12ЮЗ, 3 м/с95%1002 гПаоблачно
04:00+11Ю, 1 м/с98%1002 гПас прояснениямисл. дождь
05:00+12Ю, 2 м/с98%1001 гПаоблачно
06:00+13Ю, 2 м/с97%1002 гПаоблачно
07:00+14ЮЗ, 3 м/с96%1001 гПаоблачносл. дождь
08:00+14З, 3 м/с92%1001 гПаоблачно
09:00+15ЮЗ, 3 м/с88%1002 гПаоблачно
10:00+16ЮЗ, 3 м/с79%1002 гПаоблачносл. дождь
11:00+18ЮЗ, 3 м/с65%1002 гПаоблачно
12:00+19ЮЗ, 4 м/с57%1001 гПаоблачно
13:00+19ЮЗ, 4 м/с61%1001 гПаоблачносл. дождь
14:00+19ЮЗ, 4 м/с64%1001 гПаоблачносл. дождь
15:00+17Ю, 3 м/с78%1001 гПаоблачнодождь
16:00+17Ю, 4 м/с84%1000 гПаоблачнодождь
17:00+17Ю, 4 м/с85%1000 гПаоблачносл. дождь
18:00+16Ю, 4 м/с86%999 гПаоблачносл. дождь
19:00+17Ю, 4 м/с86%998 гПаоблачно
20:00+17Ю, 3 м/с86%998 гПаоблачно
21:00+16Ю, 3 м/с87%997 гПаоблачно
22:00+16Ю, 1 м/с92%997 гПаоблачно
23:00+14Ю, 1 м/с98%996 гПас прояснениями
27 июня
00:00+14ЮЗ, 2 м/с97%995 гПаоблачно
01:00+15З, 3 м/с90%995 гПаоблачносл. дождь
02:00+14З, 3 м/с92%996 гПаоблачно
03:00+14З, 4 м/с79%996 гПамалооблачно
04:00+13ЮЗ, 4 м/с83%996 гПас прояснениями
05:00+13ЮЗ, 4 м/с79%997 гПас прояснениями
06:00+13З, 6 м/с77%997 гПас прояснениямисл. дождь
07:00+14З, 6 м/с71%997 гПаясно
08:00+15З, 7 м/с64%998 гПас прояснениями
09:00+16З, 8 м/с57%998 гПас прояснениями